sensor_id;sensor_type;location;lat;lon;timestamp;P1;durP1;ratioP1;P2;durP2;ratioP2
29280;SDS011;25048;49.590;11.026;2023-12-14T00:01:17;6.43;;;3.20;;
29280;SDS011;25048;49.590;11.026;2023-12-14T00:03:45;5.67;;;3.93;;
29280;SDS011;25048;49.590;11.026;2023-12-14T00:06:12;5.53;;;3.83;;
29280;SDS011;25048;49.590;11.026;2023-12-14T00:08:40;6.97;;;4.13;;
29280;SDS011;25048;49.590;11.026;2023-12-14T00:11:08;9.50;;;4.70;;
29280;SDS011;25048;49.590;11.026;2023-12-14T00:13:38;8.27;;;4.87;;
29280;SDS011;25048;49.590;11.026;2023-12-14T00:16:05;7.37;;;4.60;;
29280;SDS011;25048;49.590;11.026;2023-12-14T00:18:34;7.90;;;5.17;;
29280;SDS011;25048;49.590;11.026;2023-12-14T00:21:03;9.93;;;5.57;;
29280;SDS011;25048;49.590;11.026;2023-12-14T00:23:31;11.07;;;6.03;;
29280;SDS011;25048;49.590;11.026;2023-12-14T00:26:00;10.87;;;6.23;;
29280;SDS011;25048;49.590;11.026;2023-12-14T00:28:27;10.83;;;6.80;;
29280;SDS011;25048;49.590;11.026;2023-12-14T00:30:55;11.80;;;6.73;;
29280;SDS011;25048;49.590;11.026;2023-12-14T00:33:22;13.80;;;6.97;;
29280;SDS011;25048;49.590;11.026;2023-12-14T00:35:50;13.67;;;7.93;;
29280;SDS011;25048;49.590;11.026;2023-12-14T00:38:18;13.43;;;8.33;;
29280;SDS011;25048;49.590;11.026;2023-12-14T00:40:45;15.60;;;8.87;;
29280;SDS011;25048;49.590;11.026;2023-12-14T00:43:13;18.53;;;9.47;;
29280;SDS011;25048;49.590;11.026;2023-12-14T00:45:40;19.00;;;9.40;;
29280;SDS011;25048;49.590;11.026;2023-12-14T00:48:08;21.03;;;8.80;;
29280;SDS011;25048;49.590;11.026;2023-12-14T00:50:36;21.73;;;10.00;;
29280;SDS011;25048;49.590;11.026;2023-12-14T00:53:03;25.50;;;10.00;;
29280;SDS011;25048;49.590;11.026;2023-12-14T00:55:31;23.43;;;10.30;;
29280;SDS011;25048;49.590;11.026;2023-12-14T00:57:58;17.33;;;9.93;;
29280;SDS011;25048;49.590;11.026;2023-12-14T01:00:26;19.10;;;9.33;;
29280;SDS011;25048;49.590;11.026;2023-12-14T01:02:54;16.67;;;8.93;;
29280;SDS011;25048;49.590;11.026;2023-12-14T01:05:21;17.27;;;8.83;;
29280;SDS011;25048;49.590;11.026;2023-12-14T01:07:49;22.03;;;8.87;;
29280;SDS011;25048;49.590;11.026;2023-12-14T01:10:16;17.50;;;8.63;;
29280;SDS011;25048;49.590;11.026;2023-12-14T01:12:44;13.13;;;7.83;;
29280;SDS011;25048;49.590;11.026;2023-12-14T01:15:11;19.00;;;8.97;;
29280;SDS011;25048;49.590;11.026;2023-12-14T01:17:39;14.13;;;7.37;;
29280;SDS011;25048;49.590;11.026;2023-12-14T01:20:07;12.80;;;6.57;;
29280;SDS011;25048;49.590;11.026;2023-12-14T01:22:34;12.73;;;6.50;;
29280;SDS011;25048;49.590;11.026;2023-12-14T01:25:02;11.77;;;6.73;;
29280;SDS011;25048;49.590;11.026;2023-12-14T01:27:30;11.83;;;7.10;;
29280;SDS011;25048;49.590;11.026;2023-12-14T01:29:57;9.73;;;6.27;;
29280;SDS011;25048;49.590;11.026;2023-12-14T01:32:25;13.27;;;6.30;;
29280;SDS011;25048;49.590;11.026;2023-12-14T01:34:52;14.83;;;7.10;;
29280;SDS011;25048;49.590;11.026;2023-12-14T01:37:20;11.33;;;6.50;;
29280;SDS011;25048;49.590;11.026;2023-12-14T01:39:47;12.90;;;6.60;;
29280;SDS011;25048;49.590;11.026;2023-12-14T01:42:15;12.57;;;7.17;;
29280;SDS011;25048;49.590;11.026;2023-12-14T01:44:42;14.43;;;7.57;;
29280;SDS011;25048;49.590;11.026;2023-12-14T01:47:10;20.23;;;9.30;;
29280;SDS011;25048;49.590;11.026;2023-12-14T01:49:37;16.60;;;8.20;;
29280;SDS011;25048;49.590;11.026;2023-12-14T01:52:06;12.23;;;7.23;;
29280;SDS011;25048;49.590;11.026;2023-12-14T01:54:34;14.67;;;8.10;;
29280;SDS011;25048;49.590;11.026;2023-12-14T01:57:01;13.43;;;7.00;;
29280;SDS011;25048;49.590;11.026;2023-12-14T01:59:29;16.23;;;7.30;;
29280;SDS011;25048;49.590;11.026;2023-12-14T02:01:56;13.87;;;7.00;;
29280;SDS011;25048;49.590;11.026;2023-12-14T02:04:27;12.87;;;6.13;;
29280;SDS011;25048;49.590;11.026;2023-12-14T02:06:54;15.83;;;7.40;;
29280;SDS011;25048;49.590;11.026;2023-12-14T02:09:22;13.00;;;7.10;;
29280;SDS011;25048;49.590;11.026;2023-12-14T02:11:50;17.10;;;8.50;;
29280;SDS011;25048;49.590;11.026;2023-12-14T02:14:18;12.90;;;7.20;;
29280;SDS011;25048;49.590;11.026;2023-12-14T02:16:49;15.80;;;7.83;;
29280;SDS011;25048;49.590;11.026;2023-12-14T02:19:16;19.37;;;8.00;;
29280;SDS011;25048;49.590;11.026;2023-12-14T02:21:44;13.73;;;7.70;;
29280;SDS011;25048;49.590;11.026;2023-12-14T02:24:11;19.07;;;8.60;;
29280;SDS011;25048;49.590;11.026;2023-12-14T02:26:39;15.13;;;8.20;;
29280;SDS011;25048;49.590;11.026;2023-12-14T02:29:06;19.13;;;9.03;;
29280;SDS011;25048;49.590;11.026;2023-12-14T02:31:34;14.73;;;7.83;;
29280;SDS011;25048;49.590;11.026;2023-12-14T02:34:01;16.50;;;8.40;;
29280;SDS011;25048;49.590;11.026;2023-12-14T02:36:29;13.60;;;7.63;;
29280;SDS011;25048;49.590;11.026;2023-12-14T02:38:56;15.40;;;9.00;;
29280;SDS011;25048;49.590;11.026;2023-12-14T02:41:24;17.87;;;8.93;;
29280;SDS011;25048;49.590;11.026;2023-12-14T02:43:51;14.93;;;8.50;;
29280;SDS011;25048;49.590;11.026;2023-12-14T02:46:19;18.07;;;9.37;;
29280;SDS011;25048;49.590;11.026;2023-12-14T02:48:47;18.63;;;9.13;;
29280;SDS011;25048;49.590;11.026;2023-12-14T02:51:15;18.93;;;8.80;;
29280;SDS011;25048;49.590;11.026;2023-12-14T02:53:42;17.17;;;9.57;;
29280;SDS011;25048;49.590;11.026;2023-12-14T02:56:10;20.27;;;9.57;;
29280;SDS011;25048;49.590;11.026;2023-12-14T02:58:37;20.10;;;9.77;;
29280;SDS011;25048;49.590;11.026;2023-12-14T03:01:05;23.93;;;12.30;;
29280;SDS011;25048;49.590;11.026;2023-12-14T03:03:33;25.20;;;11.93;;
29280;SDS011;25048;49.590;11.026;2023-12-14T03:06:00;29.73;;;14.13;;
29280;SDS011;25048;49.590;11.026;2023-12-14T03:08:28;38.07;;;15.53;;
29280;SDS011;25048;49.590;11.026;2023-12-14T03:10:55;38.53;;;15.80;;
29280;SDS011;25048;49.590;11.026;2023-12-14T03:13:23;42.20;;;16.47;;
29280;SDS011;25048;49.590;11.026;2023-12-14T03:15:50;39.33;;;16.57;;
29280;SDS011;25048;49.590;11.026;2023-12-14T03:18:18;44.37;;;17.33;;
29280;SDS011;25048;49.590;11.026;2023-12-14T03:20:45;43.90;;;16.67;;
29280;SDS011;25048;49.590;11.026;2023-12-14T03:23:13;36.73;;;15.57;;
29280;SDS011;25048;49.590;11.026;2023-12-14T03:25:40;39.97;;;16.17;;
29280;SDS011;25048;49.590;11.026;2023-12-14T03:28:08;39.27;;;16.17;;
29280;SDS011;25048;49.590;11.026;2023-12-14T03:30:36;45.43;;;15.73;;
29280;SDS011;25048;49.590;11.026;2023-12-14T03:33:03;41.67;;;15.47;;
29280;SDS011;25048;49.590;11.026;2023-12-14T03:35:32;35.83;;;15.00;;
29280;SDS011;25048;49.590;11.026;2023-12-14T03:38:00;38.57;;;16.67;;
29280;SDS011;25048;49.590;11.026;2023-12-14T03:40:27;39.23;;;16.97;;
29280;SDS011;25048;49.590;11.026;2023-12-14T03:42:55;39.07;;;15.10;;
29280;SDS011;25048;49.590;11.026;2023-12-14T03:45:23;37.67;;;15.80;;
29280;SDS011;25048;49.590;11.026;2023-12-14T03:47:50;33.33;;;14.97;;
29280;SDS011;25048;49.590;11.026;2023-12-14T03:50:18;39.23;;;15.23;;
29280;SDS011;25048;49.590;11.026;2023-12-14T03:52:45;40.70;;;15.77;;
29280;SDS011;25048;49.590;11.026;2023-12-14T03:55:13;41.70;;;16.03;;
29280;SDS011;25048;49.590;11.026;2023-12-14T03:57:43;38.87;;;16.30;;
29280;SDS011;25048;49.590;11.026;2023-12-14T04:00:11;33.37;;;14.80;;
29280;SDS011;25048;49.590;11.026;2023-12-14T04:02:39;40.20;;;16.10;;
29280;SDS011;25048;49.590;11.026;2023-12-14T04:05:07;41.57;;;17.17;;
29280;SDS011;25048;49.590;11.026;2023-12-14T04:07:38;38.10;;;16.27;;
29280;SDS011;25048;49.590;11.026;2023-12-14T04:10:09;35.90;;;15.17;;
29280;SDS011;25048;49.590;11.026;2023-12-14T04:12:39;39.07;;;16.77;;
29280;SDS011;25048;49.590;11.026;2023-12-14T04:15:07;37.47;;;15.73;;
29280;SDS011;25048;49.590;11.026;2023-12-14T04:17:36;37.40;;;17.27;;
29280;SDS011;25048;49.590;11.026;2023-12-14T04:20:04;35.77;;;16.37;;
29280;SDS011;25048;49.590;11.026;2023-12-14T04:22:32;34.67;;;16.20;;
29280;SDS011;25048;49.590;11.026;2023-12-14T04:24:59;40.17;;;16.47;;
29280;SDS011;25048;49.590;11.026;2023-12-14T04:27:27;37.37;;;16.17;;
29280;SDS011;25048;49.590;11.026;2023-12-14T04:29:55;32.90;;;14.83;;
29280;SDS011;25048;49.590;11.026;2023-12-14T04:32:23;31.77;;;14.07;;
29280;SDS011;25048;49.590;11.026;2023-12-14T04:34:50;38.17;;;17.17;;
29280;SDS011;25048;49.590;11.026;2023-12-14T04:37:18;40.97;;;17.70;;
29280;SDS011;25048;49.590;11.026;2023-12-14T04:39:45;36.00;;;15.07;;
29280;SDS011;25048;49.590;11.026;2023-12-14T04:42:13;42.70;;;16.97;;
29280;SDS011;25048;49.590;11.026;2023-12-14T04:44:40;39.17;;;15.97;;
29280;SDS011;25048;49.590;11.026;2023-12-14T04:47:08;42.33;;;17.33;;
29280;SDS011;25048;49.590;11.026;2023-12-14T04:49:35;41.23;;;16.93;;
29280;SDS011;25048;49.590;11.026;2023-12-14T04:52:03;41.90;;;16.90;;
29280;SDS011;25048;49.590;11.026;2023-12-14T04:54:31;41.27;;;17.40;;
29280;SDS011;25048;49.590;11.026;2023-12-14T04:57:01;41.77;;;17.03;;
29280;SDS011;25048;49.590;11.026;2023-12-14T04:59:28;35.53;;;15.37;;
29280;SDS011;25048;49.590;11.026;2023-12-14T05:01:56;38.03;;;16.90;;
29280;SDS011;25048;49.590;11.026;2023-12-14T05:04:23;39.67;;;16.20;;
29280;SDS011;25048;49.590;11.026;2023-12-14T05:06:51;34.37;;;16.37;;
29280;SDS011;25048;49.590;11.026;2023-12-14T05:09:18;39.33;;;16.20;;
29280;SDS011;25048;49.590;11.026;2023-12-14T05:11:46;44.23;;;16.80;;
29280;SDS011;25048;49.590;11.026;2023-12-14T05:14:13;39.23;;;15.20;;
29280;SDS011;25048;49.590;11.026;2023-12-14T05:16:41;41.17;;;16.93;;
29280;SDS011;25048;49.590;11.026;2023-12-14T05:19:08;39.00;;;16.23;;
29280;SDS011;25048;49.590;11.026;2023-12-14T05:21:36;32.67;;;14.80;;
29280;SDS011;25048;49.590;11.026;2023-12-14T05:24:03;42.07;;;16.20;;
29280;SDS011;25048;49.590;11.026;2023-12-14T05:26:31;41.60;;;15.80;;
29280;SDS011;25048;49.590;11.026;2023-12-14T05:28:59;37.63;;;15.63;;
29280;SDS011;25048;49.590;11.026;2023-12-14T05:31:26;37.87;;;14.73;;
29280;SDS011;25048;49.590;11.026;2023-12-14T05:33:54;40.87;;;15.47;;
29280;SDS011;25048;49.590;11.026;2023-12-14T05:36:21;38.30;;;14.93;;
29280;SDS011;25048;49.590;11.026;2023-12-14T05:38:49;35.97;;;14.90;;
29280;SDS011;25048;49.590;11.026;2023-12-14T05:41:16;28.17;;;13.47;;
29280;SDS011;25048;49.590;11.026;2023-12-14T05:43:44;29.60;;;14.17;;
29280;SDS011;25048;49.590;11.026;2023-12-14T05:46:19;39.87;;;16.00;;
29280;SDS011;25048;49.590;11.026;2023-12-14T05:48:48;36.47;;;15.50;;
29280;SDS011;25048;49.590;11.026;2023-12-14T05:52:17;32.33;;;14.60;;
29280;SDS011;25048;49.590;11.026;2023-12-14T05:53:57;34.23;;;14.83;;
29280;SDS011;25048;49.590;11.026;2023-12-14T05:56:25;34.57;;;15.27;;
29280;SDS011;25048;49.590;11.026;2023-12-14T05:58:52;40.83;;;16.57;;
29280;SDS011;25048;49.590;11.026;2023-12-14T06:01:20;36.27;;;16.60;;
29280;SDS011;25048;49.590;11.026;2023-12-14T06:03:49;38.47;;;16.40;;
29280;SDS011;25048;49.590;11.026;2023-12-14T06:06:16;32.03;;;15.07;;
29280;SDS011;25048;49.590;11.026;2023-12-14T06:08:44;37.13;;;16.30;;
29280;SDS011;25048;49.590;11.026;2023-12-14T06:11:12;36.27;;;16.47;;
29280;SDS011;25048;49.590;11.026;2023-12-14T06:13:40;40.37;;;17.73;;
29280;SDS011;25048;49.590;11.026;2023-12-14T06:16:08;37.67;;;15.77;;
29280;SDS011;25048;49.590;11.026;2023-12-14T06:18:37;36.77;;;16.10;;
29280;SDS011;25048;49.590;11.026;2023-12-14T06:21:07;37.07;;;16.30;;
29280;SDS011;25048;49.590;11.026;2023-12-14T06:23:36;35.07;;;15.67;;
29280;SDS011;25048;49.590;11.026;2023-12-14T06:26:04;40.13;;;14.90;;
29280;SDS011;25048;49.590;11.026;2023-12-14T06:28:31;37.47;;;17.00;;
29280;SDS011;25048;49.590;11.026;2023-12-14T06:30:59;37.63;;;15.13;;
29280;SDS011;25048;49.590;11.026;2023-12-14T06:33:27;35.63;;;15.73;;
29280;SDS011;25048;49.590;11.026;2023-12-14T06:35:54;36.63;;;15.27;;
29280;SDS011;25048;49.590;11.026;2023-12-14T06:38:22;37.33;;;15.33;;
29280;SDS011;25048;49.590;11.026;2023-12-14T06:40:50;31.83;;;15.10;;
29280;SDS011;25048;49.590;11.026;2023-12-14T06:43:17;36.90;;;16.50;;
29280;SDS011;25048;49.590;11.026;2023-12-14T06:45:45;40.93;;;16.40;;
29280;SDS011;25048;49.590;11.026;2023-12-14T06:48:12;41.70;;;16.67;;
29280;SDS011;25048;49.590;11.026;2023-12-14T06:50:40;44.63;;;17.60;;
29280;SDS011;25048;49.590;11.026;2023-12-14T06:53:07;48.00;;;18.67;;
29280;SDS011;25048;49.590;11.026;2023-12-14T06:55:35;44.03;;;17.10;;
29280;SDS011;25048;49.590;11.026;2023-12-14T06:58:02;54.50;;;19.37;;
29280;SDS011;25048;49.590;11.026;2023-12-14T07:00:32;44.10;;;17.63;;
29280;SDS011;25048;49.590;11.026;2023-12-14T07:03:00;53.00;;;18.60;;
29280;SDS011;25048;49.590;11.026;2023-12-14T07:05:28;48.80;;;18.43;;
29280;SDS011;25048;49.590;11.026;2023-12-14T07:07:55;51.37;;;18.50;;
29280;SDS011;25048;49.590;11.026;2023-12-14T07:10:23;50.83;;;18.93;;
29280;SDS011;25048;49.590;11.026;2023-12-14T07:12:51;49.27;;;18.37;;
29280;SDS011;25048;49.590;11.026;2023-12-14T07:15:18;51.83;;;18.13;;
29280;SDS011;25048;49.590;11.026;2023-12-14T07:17:46;50.97;;;18.20;;
29280;SDS011;25048;49.590;11.026;2023-12-14T07:20:13;51.60;;;17.93;;
29280;SDS011;25048;49.590;11.026;2023-12-14T07:22:41;44.30;;;17.80;;
29280;SDS011;25048;49.590;11.026;2023-12-14T07:25:09;44.40;;;17.47;;
29280;SDS011;25048;49.590;11.026;2023-12-14T07:27:36;48.03;;;19.03;;
29280;SDS011;25048;49.590;11.026;2023-12-14T07:30:04;44.67;;;17.17;;
29280;SDS011;25048;49.590;11.026;2023-12-14T07:32:32;54.80;;;20.70;;
29280;SDS011;25048;49.590;11.026;2023-12-14T07:34:59;52.90;;;21.57;;
29280;SDS011;25048;49.590;11.026;2023-12-14T07:37:27;52.10;;;18.17;;
29280;SDS011;25048;49.590;11.026;2023-12-14T07:39:54;51.47;;;19.80;;
29280;SDS011;25048;49.590;11.026;2023-12-14T07:42:23;45.83;;;18.27;;
29280;SDS011;25048;49.590;11.026;2023-12-14T07:44:51;48.03;;;19.23;;
29280;SDS011;25048;49.590;11.026;2023-12-14T07:47:20;45.77;;;19.10;;
29280;SDS011;25048;49.590;11.026;2023-12-14T07:49:47;45.57;;;18.43;;
29280;SDS011;25048;49.590;11.026;2023-12-14T07:52:15;46.40;;;18.50;;
29280;SDS011;25048;49.590;11.026;2023-12-14T07:54:42;45.87;;;18.37;;
29280;SDS011;25048;49.590;11.026;2023-12-14T07:57:10;45.50;;;19.27;;
29280;SDS011;25048;49.590;11.026;2023-12-14T07:59:37;43.93;;;18.40;;
29280;SDS011;25048;49.590;11.026;2023-12-14T08:02:05;47.23;;;18.47;;
29280;SDS011;25048;49.590;11.026;2023-12-14T08:04:32;46.13;;;20.03;;
29280;SDS011;25048;49.590;11.026;2023-12-14T08:07:00;48.60;;;19.13;;
29280;SDS011;25048;49.590;11.026;2023-12-14T08:09:28;43.10;;;17.73;;
29280;SDS011;25048;49.590;11.026;2023-12-14T08:11:55;50.20;;;19.50;;
29280;SDS011;25048;49.590;11.026;2023-12-14T08:14:23;45.90;;;18.13;;
29280;SDS011;25048;49.590;11.026;2023-12-14T08:16:51;45.97;;;18.93;;
29280;SDS011;25048;49.590;11.026;2023-12-14T08:19:18;54.13;;;19.03;;
29280;SDS011;25048;49.590;11.026;2023-12-14T08:21:46;47.90;;;19.67;;
29280;SDS011;25048;49.590;11.026;2023-12-14T08:24:13;44.77;;;18.10;;
29280;SDS011;25048;49.590;11.026;2023-12-14T08:26:41;44.37;;;18.97;;
29280;SDS011;25048;49.590;11.026;2023-12-14T08:29:08;45.37;;;18.97;;
29280;SDS011;25048;49.590;11.026;2023-12-14T08:31:36;50.63;;;20.20;;
29280;SDS011;25048;49.590;11.026;2023-12-14T08:34:03;41.40;;;19.10;;
29280;SDS011;25048;49.590;11.026;2023-12-14T08:36:31;46.10;;;20.27;;
29280;SDS011;25048;49.590;11.026;2023-12-14T08:38:58;43.07;;;19.73;;
29280;SDS011;25048;49.590;11.026;2023-12-14T08:41:26;40.73;;;19.33;;
29280;SDS011;25048;49.590;11.026;2023-12-14T08:43:53;44.10;;;19.43;;
29280;SDS011;25048;49.590;11.026;2023-12-14T08:46:21;49.13;;;19.77;;
29280;SDS011;25048;49.590;11.026;2023-12-14T08:48:49;40.47;;;19.07;;
29280;SDS011;25048;49.590;11.026;2023-12-14T08:51:17;37.80;;;16.87;;
29280;SDS011;25048;49.590;11.026;2023-12-14T08:53:46;31.03;;;14.60;;
29280;SDS011;25048;49.590;11.026;2023-12-14T08:56:13;33.80;;;16.03;;
29280;SDS011;25048;49.590;11.026;2023-12-14T08:58:41;36.23;;;17.30;;
29280;SDS011;25048;49.590;11.026;2023-12-14T09:01:09;34.90;;;16.33;;
29280;SDS011;25048;49.590;11.026;2023-12-14T09:03:36;42.53;;;17.17;;
29280;SDS011;25048;49.590;11.026;2023-12-14T09:06:04;40.13;;;18.07;;
29280;SDS011;25048;49.590;11.026;2023-12-14T09:08:31;41.93;;;17.73;;
29280;SDS011;25048;49.590;11.026;2023-12-14T09:10:59;43.03;;;17.67;;
29280;SDS011;25048;49.590;11.026;2023-12-14T09:13:26;33.23;;;16.07;;
29280;SDS011;25048;49.590;11.026;2023-12-14T09:15:54;35.03;;;16.03;;
29280;SDS011;25048;49.590;11.026;2023-12-14T09:18:21;32.50;;;16.13;;
29280;SDS011;25048;49.590;11.026;2023-12-14T09:20:49;30.43;;;15.60;;
29280;SDS011;25048;49.590;11.026;2023-12-14T09:23:17;30.80;;;16.53;;
29280;SDS011;25048;49.590;11.026;2023-12-14T09:25:45;31.97;;;15.53;;
29280;SDS011;25048;49.590;11.026;2023-12-14T09:28:13;30.67;;;14.70;;
29280;SDS011;25048;49.590;11.026;2023-12-14T09:30:40;25.70;;;13.37;;
29280;SDS011;25048;49.590;11.026;2023-12-14T09:33:08;27.97;;;14.70;;
29280;SDS011;25048;49.590;11.026;2023-12-14T09:35:35;24.33;;;13.47;;
29280;SDS011;25048;49.590;11.026;2023-12-14T09:38:03;24.70;;;13.33;;
29280;SDS011;25048;49.590;11.026;2023-12-14T09:40:33;29.90;;;14.47;;
29280;SDS011;25048;49.590;11.026;2023-12-14T09:43:01;31.37;;;14.57;;
29280;SDS011;25048;49.590;11.026;2023-12-14T09:45:29;27.43;;;14.03;;
29280;SDS011;25048;49.590;11.026;2023-12-14T09:47:57;26.07;;;13.00;;
29280;SDS011;25048;49.590;11.026;2023-12-14T09:50:26;23.97;;;13.63;;
29280;SDS011;25048;49.590;11.026;2023-12-14T09:52:54;25.10;;;13.27;;
29280;SDS011;25048;49.590;11.026;2023-12-14T09:55:21;25.87;;;13.67;;
29280;SDS011;25048;49.590;11.026;2023-12-14T09:57:49;26.30;;;13.03;;
29280;SDS011;25048;49.590;11.026;2023-12-14T10:00:39;22.53;;;13.13;;
29280;SDS011;25048;49.590;11.026;2023-12-14T10:03:21;22.47;;;12.30;;
29280;SDS011;25048;49.590;11.026;2023-12-14T10:05:54;24.07;;;12.37;;
29280;SDS011;25048;49.590;11.026;2023-12-14T10:08:22;20.17;;;12.00;;
29280;SDS011;25048;49.590;11.026;2023-12-14T10:10:51;26.57;;;14.27;;
29280;SDS011;25048;49.590;11.026;2023-12-14T10:13:43;27.63;;;12.97;;
29280;SDS011;25048;49.590;11.026;2023-12-14T10:16:03;26.33;;;12.83;;
29280;SDS011;25048;49.590;11.026;2023-12-14T10:18:31;26.30;;;12.27;;
29280;SDS011;25048;49.590;11.026;2023-12-14T10:21:02;21.27;;;12.20;;
29280;SDS011;25048;49.590;11.026;2023-12-14T10:23:29;20.97;;;12.50;;
29280;SDS011;25048;49.590;11.026;2023-12-14T10:25:57;25.47;;;13.03;;
29280;SDS011;25048;49.590;11.026;2023-12-14T10:28:24;25.70;;;13.27;;
29280;SDS011;25048;49.590;11.026;2023-12-14T10:30:52;24.03;;;12.97;;
29280;SDS011;25048;49.590;11.026;2023-12-14T10:33:19;28.57;;;13.90;;
29280;SDS011;25048;49.590;11.026;2023-12-14T10:35:47;27.27;;;12.80;;
29280;SDS011;25048;49.590;11.026;2023-12-14T10:38:15;24.93;;;12.77;;
29280;SDS011;25048;49.590;11.026;2023-12-14T10:40:43;25.63;;;14.60;;
29280;SDS011;25048;49.590;11.026;2023-12-14T10:43:12;32.37;;;13.50;;
29280;SDS011;25048;49.590;11.026;2023-12-14T10:45:39;24.10;;;13.50;;
29280;SDS011;25048;49.590;11.026;2023-12-14T10:48:10;33.70;;;13.90;;
29280;SDS011;25048;49.590;11.026;2023-12-14T10:50:39;24.57;;;13.43;;
29280;SDS011;25048;49.590;11.026;2023-12-14T10:53:09;26.80;;;13.90;;
29280;SDS011;25048;49.590;11.026;2023-12-14T10:55:38;30.43;;;15.10;;
29280;SDS011;25048;49.590;11.026;2023-12-14T10:58:10;26.83;;;15.60;;
29280;SDS011;25048;49.590;11.026;2023-12-14T11:00:38;26.67;;;15.03;;
29280;SDS011;25048;49.590;11.026;2023-12-14T11:03:06;29.53;;;14.70;;
29280;SDS011;25048;49.590;11.026;2023-12-14T11:05:34;27.63;;;15.67;;
29280;SDS011;25048;49.590;11.026;2023-12-14T11:08:02;32.70;;;15.30;;
29280;SDS011;25048;49.590;11.026;2023-12-14T11:10:42;34.13;;;15.77;;
29280;SDS011;25048;49.590;11.026;2023-12-14T11:13:12;26.00;;;13.87;;
29280;SDS011;25048;49.590;11.026;2023-12-14T11:15:45;28.37;;;14.07;;
29280;SDS011;25048;49.590;11.026;2023-12-14T11:20:59;27.23;;;13.67;;
29280;SDS011;25048;49.590;11.026;2023-12-14T11:26:09;28.20;;;14.93;;
29280;SDS011;25048;49.590;11.026;2023-12-14T11:28:31;25.10;;;15.03;;
29280;SDS011;25048;49.590;11.026;2023-12-14T11:31:00;27.90;;;14.93;;
29280;SDS011;25048;49.590;11.026;2023-12-14T11:33:31;29.33;;;14.90;;
29280;SDS011;25048;49.590;11.026;2023-12-14T11:36:02;23.43;;;14.93;;
29280;SDS011;25048;49.590;11.026;2023-12-14T11:38:30;26.43;;;14.10;;
29280;SDS011;25048;49.590;11.026;2023-12-14T11:40:58;27.17;;;14.53;;
29280;SDS011;25048;49.590;11.026;2023-12-14T11:43:26;25.67;;;14.17;;
29280;SDS011;25048;49.590;11.026;2023-12-14T11:45:53;24.30;;;13.93;;
29280;SDS011;25048;49.590;11.026;2023-12-14T11:48:21;27.77;;;14.77;;
29280;SDS011;25048;49.590;11.026;2023-12-14T11:50:49;25.43;;;14.07;;
29280;SDS011;25048;49.590;11.026;2023-12-14T11:53:17;23.53;;;13.93;;
29280;SDS011;25048;49.590;11.026;2023-12-14T11:55:45;22.77;;;13.83;;
29280;SDS011;25048;49.590;11.026;2023-12-14T11:58:13;27.20;;;14.23;;
29280;SDS011;25048;49.590;11.026;2023-12-14T12:00:42;25.13;;;14.33;;
29280;SDS011;25048;49.590;11.026;2023-12-14T12:03:15;22.60;;;13.83;;
29280;SDS011;25048;49.590;11.026;2023-12-14T12:05:48;26.97;;;14.63;;
29280;SDS011;25048;49.590;11.026;2023-12-14T12:08:18;29.47;;;15.33;;
29280;SDS011;25048;49.590;11.026;2023-12-14T12:10:47;26.97;;;13.83;;
29280;SDS011;25048;49.590;11.026;2023-12-14T12:13:16;25.87;;;13.57;;
29280;SDS011;25048;49.590;11.026;2023-12-14T12:15:46;27.20;;;13.70;;
29280;SDS011;25048;49.590;11.026;2023-12-14T12:18:17;22.87;;;12.87;;
29280;SDS011;25048;49.590;11.026;2023-12-14T12:20:44;21.27;;;13.50;;
29280;SDS011;25048;49.590;11.026;2023-12-14T12:23:12;25.27;;;13.13;;
29280;SDS011;25048;49.590;11.026;2023-12-14T12:25:40;21.73;;;12.97;;
29280;SDS011;25048;49.590;11.026;2023-12-14T12:28:07;25.67;;;12.97;;
29280;SDS011;25048;49.590;11.026;2023-12-14T12:30:35;27.10;;;12.90;;
29280;SDS011;25048;49.590;11.026;2023-12-14T12:33:02;22.20;;;12.93;;
29280;SDS011;25048;49.590;11.026;2023-12-14T12:35:30;18.47;;;12.07;;
29280;SDS011;25048;49.590;11.026;2023-12-14T12:37:59;23.33;;;13.37;;
29280;SDS011;25048;49.590;11.026;2023-12-14T12:40:27;19.27;;;11.20;;
29280;SDS011;25048;49.590;11.026;2023-12-14T12:42:56;20.63;;;10.40;;
29280;SDS011;25048;49.590;11.026;2023-12-14T12:45:24;19.60;;;11.73;;
29280;SDS011;25048;49.590;11.026;2023-12-14T12:47:54;16.70;;;10.23;;
29280;SDS011;25048;49.590;11.026;2023-12-14T12:50:22;19.87;;;11.33;;
29280;SDS011;25048;49.590;11.026;2023-12-14T12:52:50;16.47;;;10.37;;
29280;SDS011;25048;49.590;11.026;2023-12-14T12:58:46;19.57;;;11.73;;
29280;SDS011;25048;49.590;11.026;2023-12-14T13:01:15;19.47;;;10.20;;
29280;SDS011;25048;49.590;11.026;2023-12-14T13:03:43;22.07;;;11.23;;
29280;SDS011;25048;49.590;11.026;2023-12-14T13:06:10;16.37;;;10.73;;
29280;SDS011;25048;49.590;11.026;2023-12-14T13:08:38;17.07;;;10.40;;
29280;SDS011;25048;49.590;11.026;2023-12-14T13:11:05;22.73;;;10.90;;
29280;SDS011;25048;49.590;11.026;2023-12-14T13:13:33;18.10;;;10.10;;
29280;SDS011;25048;49.590;11.026;2023-12-14T13:16:00;20.37;;;11.83;;
29280;SDS011;25048;49.590;11.026;2023-12-14T13:18:28;19.60;;;11.03;;
29280;SDS011;25048;49.590;11.026;2023-12-14T13:20:55;25.47;;;11.97;;
29280;SDS011;25048;49.590;11.026;2023-12-14T13:23:23;19.20;;;10.97;;
29280;SDS011;25048;49.590;11.026;2023-12-14T13:25:50;17.90;;;10.13;;
29280;SDS011;25048;49.590;11.026;2023-12-14T13:28:18;16.47;;;9.80;;
29280;SDS011;25048;49.590;11.026;2023-12-14T13:30:45;13.33;;;8.13;;
29280;SDS011;25048;49.590;11.026;2023-12-14T13:33:13;16.57;;;9.20;;
29280;SDS011;25048;49.590;11.026;2023-12-14T13:35:40;14.33;;;8.33;;
29280;SDS011;25048;49.590;11.026;2023-12-14T13:38:08;15.67;;;8.73;;
29280;SDS011;25048;49.590;11.026;2023-12-14T13:40:36;13.90;;;7.77;;
29280;SDS011;25048;49.590;11.026;2023-12-14T13:43:03;11.60;;;6.87;;
29280;SDS011;25048;49.590;11.026;2023-12-14T13:45:32;12.13;;;6.63;;
29280;SDS011;25048;49.590;11.026;2023-12-14T13:48:00;17.10;;;6.50;;
29280;SDS011;25048;49.590;11.026;2023-12-14T13:50:27;11.50;;;6.13;;
29280;SDS011;25048;49.590;11.026;2023-12-14T13:52:55;9.50;;;6.17;;
29280;SDS011;25048;49.590;11.026;2023-12-14T13:55:22;11.20;;;6.30;;
29280;SDS011;25048;49.590;11.026;2023-12-14T13:57:50;8.60;;;6.03;;
29280;SDS011;25048;49.590;11.026;2023-12-14T14:00:18;9.23;;;6.33;;
29280;SDS011;25048;49.590;11.026;2023-12-14T14:02:47;9.73;;;6.03;;
29280;SDS011;25048;49.590;11.026;2023-12-14T14:05:14;10.43;;;6.10;;
29280;SDS011;25048;49.590;11.026;2023-12-14T14:07:42;12.67;;;6.77;;
29280;SDS011;25048;49.590;11.026;2023-12-14T14:10:10;12.47;;;6.53;;
29280;SDS011;25048;49.590;11.026;2023-12-14T14:12:37;10.73;;;6.17;;
29280;SDS011;25048;49.590;11.026;2023-12-14T14:15:05;10.60;;;6.27;;
29280;SDS011;25048;49.590;11.026;2023-12-14T14:17:33;12.77;;;6.17;;
29280;SDS011;25048;49.590;11.026;2023-12-14T14:20:01;10.63;;;7.00;;
29280;SDS011;25048;49.590;11.026;2023-12-14T14:22:29;11.67;;;6.53;;
29280;SDS011;25048;49.590;11.026;2023-12-14T14:24:56;11.67;;;7.83;;
29280;SDS011;25048;49.590;11.026;2023-12-14T14:27:24;11.93;;;7.40;;